Time;durP1;ratioP1;P1;durP2;ratioP2;P2;SDS_P1;SDS_P2;PMS_P1;PMS_P2;Temp;Humidity;BMP_temperature;BMP_pressure;BME280_temperature;BME280_humidity;BME280_pressure;Samples;Min_cycle;Max_cycle;Signal;HPM_P1;HPM_P2
2023/05/31 00:02:20;;;;;;;6.75;2.80;;;14.20;83.60;;;;;;5067006;28;20041;-76
2023/05/31 00:04:45;;;;;;;6.65;2.17;;;14.20;83.00;;;;;;5061413;28;20033;-82
2023/05/31 00:07:11;;;;;;;7.18;2.03;;;14.10;83.00;;;;;;5049663;28;20037;-77
2023/05/31 00:09:37;;;;;;;6.65;2.40;;;14.00;83.80;;;;;;5064058;28;20431;-77
2023/05/31 00:12:02;;;;;;;4.88;2.40;;;13.90;84.40;;;;;;5066714;28;20036;-77
2023/05/31 00:14:28;;;;;;;8.25;2.83;;;13.90;83.90;;;;;;5068777;28;20035;-77
2023/05/31 00:16:54;;;;;;;4.90;2.20;;;13.80;83.60;;;;;;5064663;28;20373;-76
2023/05/31 00:19:19;;;;;;;5.95;2.03;;;13.80;83.40;;;;;;5062847;28;20086;-76
2023/05/31 00:21:45;;;;;;;10.60;2.20;;;13.80;83.40;;;;;;5067470;28;20028;-78
2023/05/31 00:24:15;;;;;;;6.25;2.45;;;13.80;83.80;;;;;;5068019;28;20028;-76
2023/05/31 00:26:41;;;;;;;10.50;2.30;;;13.70;83.60;;;;;;5065162;28;20417;-79
2023/05/31 00:29:06;;;;;;;6.13;2.30;;;13.70;83.60;;;;;;5047781;28;20091;-78
2023/05/31 00:31:32;;;;;;;7.75;2.30;;;13.60;83.70;;;;;;5047519;28;20029;-76
2023/05/31 00:33:58;;;;;;;6.38;2.13;;;13.70;83.80;;;;;;5056147;28;20036;-78
2023/05/31 00:36:24;;;;;;;7.93;2.58;;;13.60;83.90;;;;;;5066201;28;20400;-77
2023/05/31 00:38:49;;;;;;;5.60;2.03;;;13.60;83.40;;;;;;5053733;28;20064;-82
2023/05/31 00:41:15;;;;;;;11.82;2.47;;;13.60;83.80;;;;;;5067120;28;20038;-76
2023/05/31 00:43:41;;;;;;;9.75;2.33;;;13.60;84.90;;;;;;5068627;28;20076;-79
2023/05/31 00:46:12;;;;;;;4.63;2.33;;;13.60;84.70;;;;;;5061541;28;20919;-77
2023/05/31 00:48:40;;;;;;;3.97;2.17;;;13.60;84.30;;;;;;5060328;28;20037;-77
2023/05/31 00:51:06;;;;;;;6.90;2.03;;;13.60;84.50;;;;;;5064183;28;20112;-77
2023/05/31 00:53:32;;;;;;;4.40;2.20;;;13.60;85.10;;;;;;5067139;28;20111;-76
2023/05/31 00:55:59;;;;;;;6.30;2.17;;;13.50;85.50;;;;;;5059374;28;20029;-76
2023/05/31 00:58:26;;;;;;;10.35;2.53;;;13.50;84.70;;;;;;5052374;28;20025;-77
2023/05/31 01:00:52;;;;;;;4.68;2.20;;;13.50;85.70;;;;;;5056482;28;20534;-82
2023/05/31 01:03:19;;;;;;;11.23;2.30;;;13.50;84.90;;;;;;5060126;28;20053;-77
2023/05/31 01:05:45;;;;;;;6.93;2.20;;;13.40;85.60;;;;;;5057752;28;20025;-77
2023/05/31 01:08:11;;;;;;;4.90;1.98;;;13.40;86.20;;;;;;5049862;28;20715;-77
2023/05/31 01:10:37;;;;;;;7.88;2.63;;;13.30;86.50;;;;;;5060269;28;20021;-77
2023/05/31 01:13:23;;;;;;;5.00;2.30;;;13.30;86.20;;;;;;5062374;28;20044;-77
2023/05/31 01:16:02;;;;;;;6.53;2.40;;;13.30;87.40;;;;;;5069879;28;20039;-81
2023/05/31 01:18:44;;;;;;;8.25;2.20;;;13.30;86.30;;;;;;5070774;28;20045;-78
2023/05/31 01:21:11;;;;;;;5.40;2.20;;;13.20;85.10;;;;;;5064043;28;20033;-77
2023/05/31 01:23:58;;;;;;;7.82;2.40;;;13.30;84.50;;;;;;5071763;28;20603;-76
2023/05/31 01:26:44;;;;;;;8.00;2.33;;;13.30;84.30;;;;;;5051698;28;20033;-77
2023/05/31 01:29:16;;;;;;;7.57;2.90;;;13.30;85.10;;;;;;5051256;28;20630;-77
2023/05/31 01:31:45;;;;;;;4.57;2.13;;;13.30;86.30;;;;;;5051140;28;20739;-79
2023/05/31 01:34:12;;;;;;;7.38;2.45;;;13.30;86.40;;;;;;5069391;28;20024;-77
2023/05/31 01:36:37;;;;;;;5.40;2.53;;;13.20;86.20;;;;;;5068531;28;20036;-77
2023/05/31 01:39:04;;;;;;;6.47;2.13;;;13.20;85.20;;;;;;5069674;28;20496;-77
2023/05/31 01:41:32;;;;;;;8.05;2.33;;;13.20;87.10;;;;;;5069767;28;20473;-76
2023/05/31 01:43:59;;;;;;;8.48;2.20;;;13.20;86.10;;;;;;5070373;28;20036;-77
2023/05/31 01:46:25;;;;;;;7.85;2.17;;;13.20;86.90;;;;;;5063172;28;20377;-76
2023/05/31 01:48:51;;;;;;;8.82;2.35;;;13.10;87.10;;;;;;5071215;28;20032;-81
2023/05/31 01:51:18;;;;;;;6.05;2.53;;;13.10;88.00;;;;;;5061992;28;20036;-77
2023/05/31 01:53:44;;;;;;;9.43;2.47;;;13.00;87.40;;;;;;5056319;28;20033;-77
2023/05/31 01:56:11;;;;;;;6.63;2.30;;;13.00;88.70;;;;;;5056658;28;20035;-76
2023/05/31 01:58:41;;;;;;;4.75;2.30;;;12.90;90.30;;;;;;5064907;28;20039;-78
2023/05/31 02:01:10;;;;;;;6.25;2.40;;;12.80;90.00;;;;;;5065828;28;20553;-78
2023/05/31 02:03:38;;;;;;;8.77;2.28;;;12.70;88.70;;;;;;5064501;28;20044;-78
2023/05/31 02:06:04;;;;;;;4.82;2.25;;;12.70;90.00;;;;;;5055190;28;21494;-76
2023/05/31 02:08:29;;;;;;;5.65;2.30;;;12.70;90.20;;;;;;5055999;28;20060;-79
2023/05/31 02:10:55;;;;;;;4.15;2.03;;;12.60;90.90;;;;;;5058241;28;20104;-82
2023/05/31 02:13:25;;;;;;;9.57;2.42;;;12.50;90.40;;;;;;5054455;28;20037;-75
2023/05/31 02:15:51;;;;;;;7.30;2.38;;;12.40;91.00;;;;;;5061611;28;20029;-77
2023/05/31 02:18:17;;;;;;;5.38;2.15;;;12.40;91.00;;;;;;5063299;28;20150;-76
2023/05/31 02:20:43;;;;;;;8.35;2.30;;;12.40;91.10;;;;;;5059337;28;20032;-71
2023/05/31 02:23:09;;;;;;;8.65;2.78;;;12.20;91.70;;;;;;5067704;28;20025;-77
2023/05/31 02:25:35;;;;;;;6.18;2.40;;;12.20;92.00;;;;;;5061383;28;20491;-75
2023/05/31 02:28:00;;;;;;;4.22;2.15;;;12.10;91.90;;;;;;5066861;28;20477;-76
2023/05/31 02:30:27;;;;;;;9.27;2.70;;;12.00;91.90;;;;;;5059583;28;20071;-75
2023/05/31 02:32:53;;;;;;;5.43;1.92;;;12.00;92.00;;;;;;5049208;28;20037;-76
2023/05/31 02:35:19;;;;;;;6.82;2.50;;;11.90;92.00;;;;;;5049151;28;20355;-78
2023/05/31 02:37:46;;;;;;;6.45;2.08;;;11.80;92.50;;;;;;5064902;28;20020;-76
2023/05/31 02:40:13;;;;;;;6.47;2.28;;;11.80;92.60;;;;;;5069057;28;20463;-77
2023/05/31 02:42:40;;;;;;;6.15;2.28;;;11.80;92.50;;;;;;5064527;28;20484;-76
2023/05/31 02:45:10;;;;;;;7.53;2.45;;;11.80;92.70;;;;;;5062687;28;20098;-76
2023/05/31 02:47:38;;;;;;;5.55;2.25;;;11.80;92.50;;;;;;5050326;28;20048;-77
2023/05/31 02:50:05;;;;;;;5.80;2.47;;;11.70;92.70;;;;;;5060898;28;20043;-77
2023/05/31 02:52:30;;;;;;;7.45;2.20;;;11.70;92.70;;;;;;5054089;28;20388;-77
2023/05/31 02:54:56;;;;;;;5.00;2.38;;;11.70;92.60;;;;;;5065568;28;20124;-80
2023/05/31 02:57:22;;;;;;;6.65;2.38;;;11.70;92.90;;;;;;5062745;28;20052;-76
2023/05/31 02:59:49;;;;;;;7.82;2.63;;;11.70;92.60;;;;;;5049915;28;20436;-76
2023/05/31 03:02:15;;;;;;;7.10;2.50;;;11.70;93.20;;;;;;5051171;28;21037;-76
2023/05/31 03:04:41;;;;;;;13.02;2.72;;;11.70;93.00;;;;;;5069155;28;20127;-81
2023/05/31 03:07:07;;;;;;;7.85;2.63;;;11.70;92.90;;;;;;5049459;28;20040;-77
2023/05/31 03:09:33;;;;;;;5.28;2.47;;;11.70;93.00;;;;;;5049878;28;20123;-77
2023/05/31 03:11:59;;;;;;;4.60;2.15;;;11.60;93.30;;;;;;5054628;28;20418;-82
2023/05/31 03:14:24;;;;;;;5.82;2.53;;;11.50;93.30;;;;;;5049199;28;20029;-75
2023/05/31 03:16:50;;;;;;;8.50;2.40;;;11.50;93.90;;;;;;5057462;28;20488;-76
2023/05/31 03:19:16;;;;;;;6.88;2.20;;;11.50;93.60;;;;;;5051921;28;20048;-78
2023/05/31 03:21:41;;;;;;;6.07;2.03;;;11.50;93.70;;;;;;5052314;28;20056;-76
2023/05/31 03:24:07;;;;;;;6.47;2.33;;;11.50;93.50;;;;;;5063070;28;20028;-78
2023/05/31 03:26:33;;;;;;;7.40;2.53;;;11.50;94.00;;;;;;5056164;28;20033;-78
2023/05/31 03:28:58;;;;;;;6.93;2.17;;;11.50;93.70;;;;;;5060201;28;20033;-83
2023/05/31 03:31:24;;;;;;;6.40;2.40;;;11.50;93.90;;;;;;5057477;28;20060;-77
2023/05/31 03:33:52;;;;;;;6.72;2.20;;;11.50;94.00;;;;;;5055070;28;20028;-76
2023/05/31 03:36:18;;;;;;;8.18;2.60;;;11.50;93.30;;;;;;5063222;28;20112;-78
2023/05/31 03:38:44;;;;;;;9.18;2.88;;;11.60;94.30;;;;;;5058654;28;20111;-76
2023/05/31 03:41:09;;;;;;;7.10;2.47;;;11.60;94.60;;;;;;5047915;28;20037;-76
2023/05/31 03:43:35;;;;;;;7.65;2.42;;;11.60;94.30;;;;;;5064346;28;20064;-76
2023/05/31 03:46:01;;;;;;;6.00;2.00;;;11.60;94.60;;;;;;5047971;28;20528;-83
2023/05/31 03:48:27;;;;;;;8.63;2.80;;;11.60;94.50;;;;;;5049136;28;20032;-76
2023/05/31 03:50:53;;;;;;;7.65;2.20;;;11.50;94.80;;;;;;5058001;28;20127;-78
2023/05/31 03:53:19;;;;;;;7.00;2.42;;;11.50;94.70;;;;;;5048127;28;20104;-77
2023/05/31 03:55:44;;;;;;;9.10;2.22;;;11.50;95.00;;;;;;5063405;28;20108;-76
2023/05/31 03:58:10;;;;;;;9.13;2.40;;;11.50;94.70;;;;;;5054585;28;20036;-77
2023/05/31 04:00:36;;;;;;;6.28;2.28;;;11.50;95.20;;;;;;5056110;28;20147;-77
2023/05/31 04:03:02;;;;;;;6.35;2.47;;;11.50;95.20;;;;;;5067429;28;20060;-81
2023/05/31 04:05:28;;;;;;;6.28;2.50;;;11.40;95.50;;;;;;5054053;28;20048;-78
2023/05/31 04:07:53;;;;;;;11.80;2.83;;;11.50;95.90;;;;;;5055919;28;20021;-77
2023/05/31 04:10:19;;;;;;;8.75;2.50;;;11.50;96.00;;;;;;5055809;28;20029;-77
2023/05/31 04:12:45;;;;;;;11.05;2.53;;;11.50;96.10;;;;;;5057992;28;20520;-76
2023/05/31 04:15:11;;;;;;;6.30;2.45;;;11.50;96.10;;;;;;5062792;28;20119;-76
2023/05/31 04:17:36;;;;;;;8.30;2.70;;;11.50;96.60;;;;;;5054581;28;20029;-75
2023/05/31 04:20:07;;;;;;;8.27;2.38;;;11.50;96.70;;;;;;5047673;28;20102;-80
2023/05/31 04:22:33;;;;;;;6.50;2.45;;;11.60;96.80;;;;;;5051485;28;20380;-78
2023/05/31 04:24:59;;;;;;;11.48;2.95;;;11.60;96.70;;;;;;5064257;28;20024;-80
2023/05/31 04:27:25;;;;;;;7.55;2.60;;;11.60;96.70;;;;;;5052751;28;20504;-77
2023/05/31 04:29:51;;;;;;;6.57;2.90;;;11.70;96.10;;;;;;5046540;28;20033;-76
2023/05/31 04:32:21;;;;;;;7.18;2.88;;;11.90;95.70;;;;;;5065961;28;20044;-76
2023/05/31 04:34:47;;;;;;;6.45;2.75;;;12.10;95.90;;;;;;5065988;28;20060;-78
2023/05/31 04:37:14;;;;;;;5.57;2.25;;;12.10;95.70;;;;;;5054337;28;20032;-77
2023/05/31 04:39:40;;;;;;;12.25;2.85;;;12.20;95.50;;;;;;5064284;28;20124;-77
2023/05/31 04:42:09;;;;;;;5.57;2.28;;;12.40;95.10;;;;;;5068839;28;20111;-77
2023/05/31 04:44:36;;;;;;;6.22;3.10;;;12.50;95.00;;;;;;5072698;28;20039;-77
2023/05/31 04:47:01;;;;;;;4.60;1.95;;;12.60;94.10;;;;;;5072277;28;20127;-80
2023/05/31 04:49:27;;;;;;;5.35;2.50;;;12.80;94.30;;;;;;5072405;28;20107;-77
2023/05/31 04:51:53;;;;;;;8.43;2.63;;;13.00;94.00;;;;;;5072406;28;20111;-77
2023/05/31 04:54:18;;;;;;;9.77;2.55;;;13.10;93.80;;;;;;5063417;28;20112;-77
2023/05/31 04:56:44;;;;;;;7.47;2.88;;;13.20;93.40;;;;;;5052325;28;20036;-77
2023/05/31 04:59:10;;;;;;;10.55;2.78;;;13.30;93.20;;;;;;5051303;28;20044;-76
2023/05/31 05:01:37;;;;;;;5.47;2.42;;;13.40;92.40;;;;;;5050788;28;20025;-76
2023/05/31 05:04:02;;;;;;;11.82;2.55;;;13.60;92.70;;;;;;5051472;28;20198;-81
2023/05/31 05:06:28;;;;;;;9.82;2.70;;;13.70;92.20;;;;;;5050311;28;20116;-78
2023/05/31 05:08:54;;;;;;;7.95;2.40;;;13.70;91.90;;;;;;5056828;28;20036;-76
2023/05/31 05:11:19;;;;;;;9.50;2.60;;;13.80;91.90;;;;;;5071026;28;20032;-78
2023/05/31 05:13:45;;;;;;;5.07;2.60;;;13.90;91.00;;;;;;5072048;28;20032;-77
2023/05/31 05:16:11;;;;;;;5.82;2.40;;;14.00;91.60;;;;;;5071140;28;20028;-77
2023/05/31 05:18:37;;;;;;;7.47;2.50;;;14.00;92.00;;;;;;5058098;28;20094;-78
2023/05/31 05:21:03;;;;;;;7.20;2.58;;;14.20;91.50;;;;;;5054701;28;20417;-82
2023/05/31 05:23:29;;;;;;;4.57;2.42;;;14.20;91.80;;;;;;5062550;28;20024;-80
2023/05/31 05:25:55;;;;;;;6.78;2.40;;;14.40;92.00;;;;;;5066406;28;20082;-76
2023/05/31 05:28:22;;;;;;;9.57;2.25;;;14.40;90.90;;;;;;5060353;28;20029;-76
2023/05/31 05:30:48;;;;;;;5.95;2.42;;;14.40;90.60;;;;;;5064383;28;20035;-77
2023/05/31 05:33:13;;;;;;;8.13;2.40;;;14.30;90.80;;;;;;5056236;28;20028;-78
2023/05/31 05:35:39;;;;;;;6.95;2.50;;;14.30;90.60;;;;;;5049990;28;20025;-77
2023/05/31 05:38:05;;;;;;;7.07;2.60;;;14.50;91.00;;;;;;5054873;28;20033;-83
2023/05/31 05:40:31;;;;;;;7.53;2.60;;;14.70;90.80;;;;;;5049824;28;20067;-80
2023/05/31 05:42:56;;;;;;;12.93;2.78;;;14.90;91.50;;;;;;5066512;28;20502;-80
2023/05/31 05:45:22;;;;;;;6.85;2.50;;;15.00;90.10;;;;;;5063480;28;20696;-76
2023/05/31 05:47:48;;;;;;;8.07;3.00;;;15.00;90.30;;;;;;5064935;28;20115;-77
2023/05/31 05:50:14;;;;;;;7.20;2.92;;;15.20;90.50;;;;;;5054949;28;20111;-77
2023/05/31 05:52:40;;;;;;;9.82;2.58;;;15.30;90.50;;;;;;5050516;28;20100;-77
2023/05/31 05:55:06;;;;;;;10.02;2.67;;;15.30;90.70;;;;;;5062926;28;20036;-81
2023/05/31 05:57:32;;;;;;;7.45;2.67;;;15.30;88.00;;;;;;5053062;28;20036;-77
2023/05/31 05:59:58;;;;;;;9.75;2.92;;;15.40;89.50;;;;;;5052842;28;20037;-76
2023/05/31 06:02:23;;;;;;;7.45;2.85;;;15.50;88.80;;;;;;5067507;28;20405;-77
2023/05/31 06:04:49;;;;;;;8.02;2.38;;;15.60;88.80;;;;;;5064879;28;20041;-78
2023/05/31 06:07:16;;;;;;;5.78;2.42;;;15.60;88.40;;;;;;5050231;28;20183;-77
2023/05/31 06:09:42;;;;;;;8.38;2.85;;;15.80;89.40;;;;;;5049577;28;20119;-78
2023/05/31 06:12:08;;;;;;;6.32;2.65;;;15.90;88.10;;;;;;5049751;28;20116;-80
2023/05/31 06:14:34;;;;;;;6.22;2.30;;;15.80;90.10;;;;;;5051783;28;20025;-78
2023/05/31 06:17:00;;;;;;;9.68;2.58;;;16.00;90.90;;;;;;5050784;28;20029;-76
2023/05/31 06:19:26;;;;;;;5.80;2.50;;;16.30;90.10;;;;;;5048416;28;20147;-78
2023/05/31 06:21:53;;;;;;;9.15;2.80;;;16.50;88.40;;;;;;5050753;28;20043;-78
2023/05/31 06:24:19;;;;;;;8.93;2.65;;;16.50;87.00;;;;;;5049790;28;20036;-78
2023/05/31 06:26:45;;;;;;;7.85;2.53;;;16.60;87.00;;;;;;5050624;28;20033;-77
2023/05/31 06:29:11;;;;;;;6.93;2.42;;;16.70;85.60;;;;;;5066124;28;20059;-78
2023/05/31 06:31:38;;;;;;;8.23;2.78;;;16.80;86.60;;;;;;5070296;28;20028;-80
2023/05/31 06:34:04;;;;;;;10.57;2.80;;;16.90;85.00;;;;;;5069033;28;20056;-75
2023/05/31 06:36:31;;;;;;;7.97;2.88;;;16.90;85.60;;;;;;5069598;28;20114;-76
2023/05/31 06:38:57;;;;;;;6.78;2.97;;;16.80;86.20;;;;;;5070402;28;20036;-78
2023/05/31 06:41:23;;;;;;;6.60;2.65;;;16.90;85.00;;;;;;5068001;28;20029;-78
2023/05/31 06:43:49;;;;;;;9.02;3.15;;;17.00;86.00;;;;;;5068471;28;20513;-77
2023/05/31 06:46:17;;;;;;;9.70;2.88;;;17.10;83.70;;;;;;5067652;28;20035;-79
2023/05/31 06:48:43;;;;;;;7.55;3.00;;;17.20;83.50;;;;;;5070273;28;20036;-78
2023/05/31 06:51:09;;;;;;;8.18;2.70;;;17.20;83.00;;;;;;5069885;28;20028;-82
2023/05/31 06:53:34;;;;;;;15.63;3.10;;;17.20;83.00;;;;;;5069843;28;20070;-77
2023/05/31 06:56:00;;;;;;;8.80;2.72;;;17.30;82.40;;;;;;5068921;28;20032;-77
2023/05/31 06:58:32;;;;;;;10.63;3.08;;;17.40;82.30;;;;;;5067342;28;20041;-77
2023/05/31 07:00:58;;;;;;;7.47;3.03;;;17.30;81.60;;;;;;5070020;28;20090;-77
2023/05/31 07:03:24;;;;;;;7.65;3.03;;;17.40;82.40;;;;;;5069172;28;20373;-77
2023/05/31 07:05:50;;;;;;;5.55;2.35;;;17.50;81.40;;;;;;5069312;28;20054;-77
2023/05/31 07:08:16;;;;;;;7.10;2.50;;;17.70;80.70;;;;;;5068854;28;20037;-76
2023/05/31 07:10:42;;;;;;;10.10;2.90;;;17.70;80.50;;;;;;5069643;28;20039;-79
2023/05/31 07:13:07;;;;;;;9.20;2.80;;;17.80;80.70;;;;;;5067741;28;20746;-78
2023/05/31 07:15:36;;;;;;;12.80;3.00;;;17.90;80.60;;;;;;5068583;28;20077;-76
2023/05/31 07:18:02;;;;;;;7.43;2.58;;;17.90;79.20;;;;;;5068086;28;20082;-75
2023/05/31 07:20:27;;;;;;;11.20;3.05;;;18.00;80.40;;;;;;5058014;28;20037;-78
2023/05/31 07:22:53;;;;;;;14.02;3.63;;;18.20;79.70;;;;;;5049600;28;20028;-79
2023/05/31 07:25:19;;;;;;;9.73;2.78;;;18.40;80.00;;;;;;5047455;28;20120;-78
2023/05/31 07:27:45;;;;;;;5.05;2.38;;;18.40;79.60;;;;;;5049498;28;20017;-77
2023/05/31 07:30:10;;;;;;;6.20;2.97;;;18.60;78.00;;;;;;5049145;28;20028;-81
2023/05/31 07:32:36;;;;;;;6.55;2.67;;;18.80;76.80;;;;;;5049492;28;20790;-78
2023/05/31 07:35:03;;;;;;;12.02;2.75;;;18.80;76.60;;;;;;5068239;28;20504;-77
2023/05/31 07:37:29;;;;;;;10.75;2.85;;;18.90;75.60;;;;;;5067072;28;20056;-78
2023/05/31 07:39:54;;;;;;;18.48;2.88;;;18.80;75.00;;;;;;5069154;28;20064;-78
2023/05/31 07:42:20;;;;;;;10.43;2.80;;;18.90;76.90;;;;;;5068479;28;20116;-76
2023/05/31 07:44:48;;;;;;;7.28;2.47;;;19.10;74.60;;;;;;5069146;28;20120;-77
2023/05/31 07:47:15;;;;;;;14.27;2.88;;;19.10;74.50;;;;;;5068540;28;20031;-80
2023/05/31 07:49:40;;;;;;;6.13;2.58;;;19.30;74.20;;;;;;5066865;28;20032;-76
2023/05/31 07:52:07;;;;;;;9.90;3.40;;;19.30;73.80;;;;;;5067757;28;20102;-77
2023/05/31 07:54:32;;;;;;;9.75;2.78;;;19.30;73.50;;;;;;5067638;28;20090;-77
2023/05/31 07:56:58;;;;;;;7.43;3.08;;;19.20;73.70;;;;;;5068978;28;20032;-77
2023/05/31 07:59:24;;;;;;;4.70;2.45;;;19.40;72.30;;;;;;5067838;28;20397;-77
2023/05/31 08:01:49;;;;;;;6.97;2.35;;;19.50;72.60;;;;;;5058047;28;20029;-76
2023/05/31 08:04:15;;;;;;;9.82;2.60;;;19.60;70.30;;;;;;5048412;28;20032;-82
2023/05/31 08:06:42;;;;;;;11.18;2.78;;;19.60;71.50;;;;;;5047357;28;20124;-76
2023/05/31 08:09:08;;;;;;;11.60;2.85;;;19.70;72.10;;;;;;5048806;28;20557;-78
2023/05/31 08:11:37;;;;;;;13.55;2.55;;;20.00;71.60;;;;;;5048078;28;20028;-77
2023/05/31 08:14:03;;;;;;;11.50;2.78;;;20.10;70.20;;;;;;5049098;28;20743;-76
2023/05/31 08:16:29;;;;;;;13.18;2.80;;;20.20;68.90;;;;;;5054730;28;20136;-77
2023/05/31 08:18:55;;;;;;;10.70;2.30;;;20.20;68.60;;;;;;5068778;28;20445;-78
2023/05/31 08:21:22;;;;;;;7.53;3.20;;;20.20;67.20;;;;;;5067826;28;20024;-75
2023/05/31 08:23:48;;;;;;;8.30;2.50;;;20.30;66.70;;;;;;5067132;28;20028;-77
2023/05/31 08:26:13;;;;;;;14.43;3.05;;;20.20;66.60;;;;;;5068469;28;20029;-79
2023/05/31 08:28:40;;;;;;;7.50;2.60;;;20.10;65.80;;;;;;5068413;28;20032;-77
2023/05/31 08:31:06;;;;;;;9.95;2.47;;;20.30;66.60;;;;;;5065838;28;20032;-77
2023/05/31 08:33:32;;;;;;;8.90;2.90;;;20.40;66.70;;;;;;5067682;28;20116;-76
2023/05/31 08:36:04;;;;;;;9.30;2.75;;;20.50;67.00;;;;;;5068553;28;20033;-77
2023/05/31 08:38:30;;;;;;;25.45;3.20;;;20.60;64.90;;;;;;5067650;28;20032;-77
2023/05/31 08:41:02;;;;;;;8.15;2.45;;;20.70;65.40;;;;;;5068577;28;20033;-76
2023/05/31 08:43:28;;;;;;;10.88;2.70;;;20.60;65.00;;;;;;5067444;28;20045;-77
2023/05/31 08:45:55;;;;;;;9.63;2.78;;;20.60;64.90;;;;;;5067731;28;20033;-77
2023/05/31 08:48:39;;;;;;;7.53;2.50;;;20.70;65.40;;;;;;5067584;28;20033;-77
2023/05/31 08:51:06;;;;;;;10.25;2.72;;;20.80;65.00;;;;;;5068431;28;20512;-75
2023/05/31 08:53:34;;;;;;;7.00;2.80;;;20.90;64.40;;;;;;5067494;28;20025;-77
2023/05/31 08:56:06;;;;;;;5.55;2.40;;;21.00;64.70;;;;;;5066939;28;20372;-76
2023/05/31 08:58:35;;;;;;;5.95;2.53;;;20.90;65.80;;;;;;5067646;28;20441;-76
2023/05/31 09:01:02;;;;;;;13.23;2.50;;;21.00;64.20;;;;;;5067345;28;20082;-75
2023/05/31 09:03:28;;;;;;;10.52;2.75;;;21.00;65.10;;;;;;5065865;28;20095;-77
2023/05/31 09:05:55;;;;;;;12.70;2.65;;;21.10;64.60;;;;;;5068300;28;20056;-75
2023/05/31 09:08:21;;;;;;;23.35;3.05;;;21.20;64.10;;;;;;5067348;28;20028;-76
2023/05/31 09:10:47;;;;;;;6.47;2.70;;;21.10;64.30;;;;;;5066716;28;20036;-77
2023/05/31 09:13:13;;;;;;;10.45;2.72;;;21.10;63.90;;;;;;5066677;28;20131;-77
2023/05/31 09:15:41;;;;;;;7.43;2.60;;;21.40;67.90;;;;;;5057665;28;20344;-76
2023/05/31 09:18:20;;;;;;;8.80;2.70;;;21.50;65.60;;;;;;5047691;28;20524;-77
2023/05/31 09:20:50;;;;;;;7.65;2.80;;;21.80;65.00;;;;;;5048110;28;20021;-79
2023/05/31 09:23:18;;;;;;;8.25;2.72;;;22.00;64.30;;;;;;5048191;28;20021;-76
2023/05/31 09:25:52;;;;;;;9.15;2.72;;;21.90;64.40;;;;;;5046302;28;20032;-75
2023/05/31 09:28:19;;;;;;;10.15;2.90;;;21.60;63.10;;;;;;5049132;28;20068;-79
2023/05/31 09:30:44;;;;;;;10.50;2.85;;;21.60;63.50;;;;;;5062803;28;20037;-75
2023/05/31 09:33:12;;;;;;;17.10;2.92;;;21.80;63.30;;;;;;5069516;28;20036;-75
2023/05/31 09:35:37;;;;;;;12.50;3.03;;;21.90;64.30;;;;;;5070838;28;20052;-77
2023/05/31 09:38:06;;;;;;;9.38;2.42;;;22.00;62.30;;;;;;5071567;28;20079;-78
2023/05/31 09:40:33;;;;;;;10.30;2.95;;;22.00;61.80;;;;;;5070611;28;20133;-76
2023/05/31 09:42:59;;;;;;;19.30;3.22;;;22.00;63.70;;;;;;5070018;28;20082;-76
2023/05/31 09:45:28;;;;;;;15.48;3.00;;;22.40;63.70;;;;;;5070767;28;20025;-75
2023/05/31 09:47:54;;;;;;;9.40;2.95;;;22.20;61.30;;;;;;5070571;28;20048;-77
2023/05/31 09:50:21;;;;;;;6.00;2.50;;;22.20;62.00;;;;;;5070938;28;20032;-80
2023/05/31 09:52:51;;;;;;;13.38;3.05;;;22.30;62.80;;;;;;5071237;28;20033;-77
2023/05/31 09:55:17;;;;;;;12.82;3.10;;;22.00;59.90;;;;;;5071394;28;20117;-76
2023/05/31 09:57:45;;;;;;;7.53;2.65;;;22.00;62.30;;;;;;5070785;28;20494;-76
2023/05/31 10:00:16;;;;;;;14.60;4.00;;;22.10;61.30;;;;;;5070983;28;20029;-77
2023/05/31 10:02:50;;;;;;;8.10;2.55;;;22.20;59.80;;;;;;5051045;28;20032;-76
2023/05/31 10:05:16;;;;;;;5.78;2.72;;;22.40;59.50;;;;;;5051271;28;20029;-75
2023/05/31 10:07:51;;;;;;;6.20;2.60;;;22.50;60.40;;;;;;5050559;28;20051;-76
2023/05/31 10:10:20;;;;;;;5.95;2.80;;;22.50;59.50;;;;;;5051035;28;20036;-75
2023/05/31 10:12:53;;;;;;;10.50;2.78;;;22.40;61.30;;;;;;5050646;28;20025;-74
2023/05/31 10:15:22;;;;;;;6.53;2.58;;;22.50;59.70;;;;;;5050337;28;20755;-76
2023/05/31 10:18:02;;;;;;;12.80;2.83;;;22.60;59.10;;;;;;5070580;28;20036;-78
2023/05/31 10:20:40;;;;;;;11.18;2.75;;;22.70;58.20;;;;;;5070060;28;20066;-77
2023/05/31 10:23:14;;;;;;;6.00;2.20;;;22.90;58.10;;;;;;5069311;28;20024;-76
2023/05/31 10:25:56;;;;;;;5.60;2.53;;;22.70;57.00;;;;;;5069727;28;20159;-75
2023/05/31 10:28:28;;;;;;;11.13;2.50;;;22.70;57.80;;;;;;5070130;28;20094;-82
2023/05/31 10:30:56;;;;;;;7.03;2.22;;;22.90;56.90;;;;;;5068156;28;20059;-76
2023/05/31 10:33:25;;;;;;;6.63;2.50;;;23.00;56.80;;;;;;5070100;28;20020;-77
2023/05/31 10:35:51;;;;;;;5.45;2.50;;;23.20;56.20;;;;;;5070397;28;20060;-80
2023/05/31 10:38:20;;;;;;;7.07;2.38;;;23.00;55.90;;;;;;5070257;28;20079;-76
2023/05/31 10:41:16;;;;;;;6.53;2.50;;;23.10;56.80;;;;;;5067777;28;20036;-75
2023/05/31 10:43:51;;;;;;;9.18;2.58;;;23.30;55.70;;;;;;5068126;28;20060;-77
2023/05/31 10:46:22;;;;;;;8.07;2.60;;;23.60;58.10;;;;;;5070581;28;20028;-78
2023/05/31 10:48:52;;;;;;;9.25;2.38;;;23.90;54.10;;;;;;5067928;28;20035;-78
2023/05/31 10:51:18;;;;;;;6.70;2.67;;;24.10;54.70;;;;;;5070143;28;20552;-78
2023/05/31 10:53:46;;;;;;;6.30;2.50;;;24.00;55.00;;;;;;5069721;28;20043;-77
2023/05/31 10:56:18;;;;;;;9.18;2.47;;;24.20;53.50;;;;;;5070119;28;20078;-76
2023/05/31 10:58:49;;;;;;;4.15;2.30;;;24.20;53.30;;;;;;5069315;28;20221;-77
2023/05/31 11:01:21;;;;;;;6.00;2.40;;;24.00;51.10;;;;;;5068536;28;20031;-75
2023/05/31 11:03:49;;;;;;;6.38;2.10;;;23.90;53.20;;;;;;5048895;28;20037;-77
2023/05/31 11:06:17;;;;;;;6.07;2.63;;;23.80;52.10;;;;;;5050288;28;20408;-76
2023/05/31 11:09:15;;;;;;;9.00;2.97;;;23.90;53.30;;;;;;5049327;28;20040;-77
2023/05/31 11:11:41;;;;;;;14.13;2.40;;;23.80;52.30;;;;;;5048855;28;20082;-75
2023/05/31 11:14:27;;;;;;;6.70;2.40;;;23.90;53.70;;;;;;5049927;28;20134;-77
2023/05/31 11:16:53;;;;;;;6.85;2.30;;;24.20;53.80;;;;;;5056075;28;20730;-76
2023/05/31 11:19:21;;;;;;;12.07;2.50;;;24.30;50.40;;;;;;5068935;28;20032;-79
2023/05/31 11:21:52;;;;;;;6.15;2.28;;;24.00;50.50;;;;;;5068469;28;20016;-77
2023/05/31 11:24:50;;;;;;;3.88;1.73;;;24.20;52.30;;;;;;5067576;28;20116;-76
2023/05/31 11:27:17;;;;;;;6.10;2.35;;;24.50;52.00;;;;;;5067927;28;20032;-76
2023/05/31 11:29:51;;;;;;;10.13;2.53;;;24.50;51.30;;;;;;5068879;28;20116;-76
2023/05/31 11:32:22;;;;;;;7.65;2.25;;;24.20;50.40;;;;;;5069634;28;20385;-77
2023/05/31 11:34:56;;;;;;;4.95;2.45;;;23.90;49.20;;;;;;5068356;28;20532;-78
2023/05/31 11:37:34;;;;;;;7.53;2.33;;;24.30;52.50;;;;;;5068308;28;20032;-76
2023/05/31 11:40:05;;;;;;;5.43;2.10;;;24.50;51.90;;;;;;5069204;28;20094;-77
2023/05/31 11:42:32;;;;;;;5.68;2.17;;;24.90;52.00;;;;;;5068420;28;20032;-76
2023/05/31 11:45:03;;;;;;;4.55;2.10;;;25.10;48.40;;;;;;5069130;28;20028;-77
2023/05/31 11:47:36;;;;;;;12.48;2.22;;;25.20;49.40;;;;;;5068515;28;20111;-82
2023/05/31 11:50:02;;;;;;;7.03;2.15;;;25.60;50.50;;;;;;5068837;28;20040;-76
2023/05/31 11:52:29;;;;;;;7.90;2.55;;;25.70;49.80;;;;;;5067505;28;20439;-81
2023/05/31 11:55:03;;;;;;;10.70;2.22;;;25.70;48.40;;;;;;5068968;28;20025;-75
2023/05/31 11:57:30;;;;;;;7.18;2.42;;;25.40;47.20;;;;;;5068523;28;20023;-80
2023/05/31 12:00:07;;;;;;;4.85;2.30;;;25.10;47.40;;;;;;5068830;28;20538;-75
2023/05/31 12:02:34;;;;;;;8.80;2.58;;;25.10;47.80;;;;;;5067949;28;20056;-75
2023/05/31 12:05:00;;;;;;;3.78;2.17;;;24.90;49.20;;;;;;5068866;28;20059;-77
2023/05/31 12:07:25;;;;;;;7.03;2.40;;;24.90;48.40;;;;;;5058751;28;20053;-75
2023/05/31 12:09:51;;;;;;;6.20;2.20;;;24.80;47.20;;;;;;5047937;28;20033;-76
2023/05/31 12:12:17;;;;;;;5.75;2.38;;;24.60;47.20;;;;;;5058818;28;20461;-77
2023/05/31 12:14:51;;;;;;;10.30;2.33;;;24.60;47.30;;;;;;5066543;28;20064;-74
2023/05/31 12:17:16;;;;;;;10.57;2.10;;;24.80;49.10;;;;;;5067234;28;20075;-77
2023/05/31 12:19:42;;;;;;;8.80;2.45;;;25.10;47.50;;;;;;5067805;28;20481;-76
2023/05/31 12:22:08;;;;;;;5.97;2.60;;;25.40;49.20;;;;;;5067320;28;20068;-77
2023/05/31 12:24:36;;;;;;;4.10;1.90;;;25.20;47.30;;;;;;5066254;28;20082;-76
2023/05/31 12:27:02;;;;;;;7.00;2.60;;;25.10;47.20;;;;;;5068633;28;20115;-77
2023/05/31 12:29:29;;;;;;;5.80;2.20;;;24.80;46.70;;;;;;5068378;28;20459;-80
2023/05/31 12:32:03;;;;;;;3.95;1.98;;;25.00;47.20;;;;;;5067014;28;20024;-76
2023/05/31 12:34:32;;;;;;;4.43;2.30;;;25.30;51.70;;;;;;5067715;28;20033;-82
2023/05/31 12:37:02;;;;;;;9.07;2.30;;;25.50;46.80;;;;;;5067201;28;20035;-76
2023/05/31 12:39:28;;;;;;;5.70;2.22;;;25.20;47.20;;;;;;5067291;28;20032;-79
2023/05/31 12:41:54;;;;;;;7.57;2.92;;;25.20;46.50;;;;;;5068193;28;20032;-76
2023/05/31 12:44:21;;;;;;;6.03;2.10;;;25.40;47.10;;;;;;5068455;28;20029;-78
2023/05/31 12:46:51;;;;;;;12.18;2.30;;;25.50;47.80;;;;;;5066414;28;20032;-77
2023/05/31 12:49:26;;;;;;;8.95;2.55;;;25.90;47.70;;;;;;5063604;28;20135;-77